createdAt,value
2022-12-15T00:02:42.125Z,1.60
2022-12-15T00:05:32.430Z,1.50
2022-12-15T00:08:31.901Z,1.50
2022-12-15T00:11:23.250Z,1.40
2022-12-15T00:14:13.753Z,1.40
2022-12-15T00:17:04.052Z,1.50
2022-12-15T00:19:54.358Z,1.50
2022-12-15T00:22:44.669Z,1.50
2022-12-15T00:25:35.357Z,1.50
2022-12-15T00:28:25.782Z,1.50
2022-12-15T00:31:17.242Z,1.40
2022-12-15T00:34:08.237Z,1.50
2022-12-15T00:36:58.725Z,1.50
2022-12-15T00:39:30.728Z,1.50
2022-12-15T00:42:02.699Z,1.50
2022-12-15T00:44:34.753Z,1.50
2022-12-15T00:47:06.753Z,1.50
2022-12-15T00:49:57.585Z,1.40
2022-12-15T00:52:48.225Z,1.40
2022-12-15T00:55:38.502Z,1.50
2022-12-15T00:58:28.777Z,1.50
2022-12-15T01:01:28.400Z,1.50
2022-12-15T01:04:19.291Z,1.50
2022-12-15T01:07:09.713Z,1.50
2022-12-15T01:10:00.077Z,1.50
2022-12-15T01:12:50.909Z,1.50
2022-12-15T01:15:41.257Z,1.50
2022-12-15T01:18:31.540Z,1.50
2022-12-15T01:21:06.177Z,1.50
2022-12-15T01:23:39.708Z,1.50
2022-12-15T01:26:11.617Z,1.60
2022-12-15T01:28:43.529Z,1.60
2022-12-15T01:31:15.509Z,1.50
2022-12-15T01:33:47.481Z,1.40
2022-12-15T01:36:19.540Z,1.30
2022-12-15T01:38:54.256Z,1.20
2022-12-15T01:41:26.773Z,1.20
2022-12-15T01:44:18.661Z,1.20
2022-12-15T01:46:52.850Z,1.20
2022-12-15T01:49:29.160Z,1.10
2022-12-15T01:52:02.699Z,1.00
2022-12-15T01:54:57.943Z,1.10
2022-12-15T01:57:32.597Z,1.20
2022-12-15T02:04:49.900Z,1.20
2022-12-15T02:07:49.829Z,1.20
2022-12-15T02:10:25.028Z,1.30
2022-12-15T02:13:18.510Z,1.40
2022-12-15T02:16:03.957Z,1.30
2022-12-15T02:18:48.163Z,1.10
2022-12-15T02:21:46.826Z,1.20
2022-12-15T02:24:21.680Z,1.20
2022-12-15T02:27:08.246Z,1.30
2022-12-15T02:30:15.101Z,1.30
2022-12-15T02:33:08.738Z,1.20
2022-12-15T02:35:59.388Z,1.20
2022-12-15T02:38:37.429Z,1.20
2022-12-15T02:41:30.857Z,1.10
2022-12-15T02:44:26.778Z,1.00
2022-12-15T02:47:19.939Z,1.00
2022-12-15T02:50:14.751Z,1.00
2022-12-15T02:53:08.278Z,1.00
2022-12-15T02:56:09.723Z,1.10
2022-12-15T02:58:47.378Z,1.10
2022-12-15T03:01:31.001Z,1.10
2022-12-15T03:04:06.638Z,1.10
2022-12-15T03:06:39.190Z,1.20
2022-12-15T03:09:12.553Z,1.30
2022-12-15T03:11:44.431Z,1.40
2022-12-15T03:14:16.586Z,1.60
2022-12-15T03:16:48.674Z,1.70
2022-12-15T03:19:21.954Z,1.80
2022-12-15T03:21:54.076Z,1.70
2022-12-15T03:24:26.048Z,1.70
2022-12-15T03:26:57.960Z,1.70
2022-12-15T03:29:29.917Z,1.70
2022-12-15T03:32:02.013Z,1.70
2022-12-15T03:34:34.026Z,1.70
2022-12-15T03:37:05.876Z,1.90
2022-12-15T03:39:37.821Z,2.00
2022-12-15T03:42:09.695Z,2.20
2022-12-15T03:44:41.603Z,2.40
2022-12-15T03:47:13.470Z,2.50
2022-12-15T03:49:45.385Z,2.50
2022-12-15T03:52:17.345Z,2.50
2022-12-15T03:54:49.390Z,2.60
2022-12-15T03:57:21.376Z,2.60
2022-12-15T03:59:53.333Z,2.70
2022-12-15T04:02:25.430Z,2.50
2022-12-15T04:04:57.520Z,2.30
2022-12-15T04:07:29.414Z,2.40
2022-12-15T04:10:01.250Z,2.50
2022-12-15T04:12:33.281Z,2.50
2022-12-15T04:15:09.351Z,2.50
2022-12-15T04:17:41.946Z,2.40
2022-12-15T04:20:13.944Z,2.40
2022-12-15T04:22:48.241Z,2.30
2022-12-15T04:25:43.141Z,2.40
2022-12-15T04:28:33.465Z,2.40
2022-12-15T04:31:50.902Z,2.40
2022-12-15T04:34:43.279Z,2.40
2022-12-15T04:37:33.933Z,2.50
2022-12-15T04:40:25.311Z,2.50
2022-12-15T04:43:15.625Z,2.50
2022-12-15T04:46:06.006Z,2.60
2022-12-15T04:48:56.320Z,2.60
2022-12-15T04:51:46.707Z,2.60
2022-12-15T04:54:36.999Z,2.60
2022-12-15T04:57:27.443Z,2.70
2022-12-15T05:00:17.910Z,2.70
2022-12-15T05:03:08.993Z,2.80
2022-12-15T05:06:02.245Z,2.80
2022-12-15T05:08:52.468Z,2.90
2022-12-15T05:11:42.852Z,2.90
2022-12-15T05:14:33.518Z,2.90
2022-12-15T05:17:23.938Z,2.90
2022-12-15T05:20:14.352Z,2.80
2022-12-15T05:23:04.855Z,2.80
2022-12-15T05:25:55.111Z,2.70
2022-12-15T05:28:45.877Z,2.60
2022-12-15T05:31:37.633Z,2.60
2022-12-15T05:34:09.616Z,2.50
2022-12-15T05:36:41.606Z,2.60
2022-12-15T05:39:13.666Z,2.60
2022-12-15T05:41:45.733Z,2.60
2022-12-15T05:44:18.283Z,2.80
2022-12-15T05:46:50.318Z,2.80
2022-12-15T05:49:23.342Z,2.90
2022-12-15T05:51:55.309Z,2.80
2022-12-15T05:54:27.225Z,2.80
2022-12-15T05:56:59.123Z,2.70
2022-12-15T05:59:31.019Z,2.70
2022-12-15T06:02:03.168Z,2.70
2022-12-15T06:04:35.176Z,2.70
2022-12-15T06:07:10.160Z,2.80
2022-12-15T06:09:42.070Z,2.80
2022-12-15T06:12:13.898Z,2.90
2022-12-15T06:14:45.879Z,2.90
2022-12-15T06:17:40.721Z,2.80
2022-12-15T06:20:12.626Z,2.80
2022-12-15T06:22:49.711Z,2.80
2022-12-15T06:25:22.087Z,2.80
2022-12-15T06:27:58.371Z,2.90
2022-12-15T06:30:33.775Z,3.00
2022-12-15T06:33:05.773Z,3.00
2022-12-15T06:35:38.643Z,3.10
2022-12-15T06:38:10.699Z,3.20
2022-12-15T06:40:42.621Z,3.20
2022-12-15T06:43:14.585Z,3.30
2022-12-15T06:45:50.421Z,3.30
2022-12-15T06:48:24.218Z,3.40
2022-12-15T06:50:56.719Z,3.50
2022-12-15T06:53:29.026Z,3.50
2022-12-15T06:56:04.092Z,3.50
2022-12-15T06:58:35.932Z,3.60
2022-12-15T07:01:08.406Z,3.60
2022-12-15T07:03:41.032Z,3.70
2022-12-15T07:06:15.579Z,3.70
2022-12-15T07:08:53.114Z,3.70
2022-12-15T07:11:25.090Z,3.70
2022-12-15T07:13:56.978Z,3.70
2022-12-15T07:16:29.026Z,3.70
2022-12-15T07:19:00.905Z,3.80
2022-12-15T07:21:32.802Z,3.80
2022-12-15T07:24:05.473Z,3.70
2022-12-15T07:26:37.592Z,3.70
2022-12-15T07:29:10.376Z,3.70
2022-12-15T07:31:42.452Z,3.70
2022-12-15T07:34:14.457Z,3.70
2022-12-15T07:36:51.906Z,3.60
2022-12-15T07:39:24.601Z,3.50
2022-12-15T07:41:56.592Z,3.60
2022-12-15T07:44:29.287Z,3.60
2022-12-15T07:47:01.177Z,3.60
2022-12-15T07:49:33.101Z,3.60
2022-12-15T07:52:05.124Z,3.50
2022-12-15T07:54:37.109Z,3.50
2022-12-15T07:57:09.061Z,3.50
2022-12-15T07:59:40.931Z,3.50
2022-12-15T08:02:14.099Z,3.50
2022-12-15T08:04:46.078Z,3.60
2022-12-15T08:07:18.140Z,3.60
2022-12-15T08:09:50.050Z,3.60
2022-12-15T08:12:21.918Z,3.60
2022-12-15T08:14:53.931Z,3.60
2022-12-15T08:17:25.789Z,3.80
2022-12-15T08:19:58.993Z,3.80
2022-12-15T08:22:30.976Z,3.80
2022-12-15T08:25:02.913Z,3.80
2022-12-15T08:27:35.811Z,3.90
2022-12-15T08:30:08.541Z,4.10
2022-12-15T08:32:40.441Z,4.30
2022-12-15T08:35:39.034Z,4.40
2022-12-15T08:38:05.850Z,4.50
2022-12-15T08:40:38.109Z,4.50
2022-12-15T08:43:10.051Z,4.40
2022-12-15T08:45:42.522Z,4.30
2022-12-15T08:48:14.510Z,4.30
2022-12-15T08:50:46.330Z,4.30
2022-12-15T08:53:33.585Z,4.30
2022-12-15T08:56:08.734Z,4.30
2022-12-15T08:58:40.720Z,4.30
2022-12-15T09:01:22.495Z,4.40
2022-12-15T09:03:56.545Z,4.50
2022-12-15T09:06:35.515Z,4.60
2022-12-15T09:09:10.708Z,4.70
2022-12-15T09:11:42.621Z,4.70
2022-12-15T09:14:14.928Z,4.70
2022-12-15T09:16:50.676Z,4.80
2022-12-15T09:19:22.766Z,4.80
2022-12-15T09:21:54.840Z,4.70
2022-12-15T09:24:34.698Z,4.70
2022-12-15T09:27:07.556Z,4.60
2022-12-15T09:29:39.474Z,4.50
2022-12-15T09:32:14.283Z,4.60
2022-12-15T09:34:46.456Z,4.60
2022-12-15T09:37:18.702Z,4.60
2022-12-15T09:39:50.679Z,4.50
2022-12-15T09:42:28.585Z,4.50
2022-12-15T09:45:07.742Z,4.70
2022-12-15T09:47:57.279Z,4.80
2022-12-15T09:50:38.828Z,4.80
2022-12-15T09:53:45.601Z,4.80
2022-12-15T09:56:18.068Z,4.80
2022-12-15T09:59:13.714Z,4.80
2022-12-15T10:01:53.636Z,4.90
2022-12-15T10:04:43.729Z,5.00
2022-12-15T10:07:26.897Z,5.10
2022-12-15T10:09:58.930Z,5.20
2022-12-15T10:12:35.738Z,5.40
2022-12-15T10:15:29.187Z,5.40
2022-12-15T10:18:12.463Z,5.30
2022-12-15T10:20:44.336Z,5.30
2022-12-15T10:23:20.811Z,5.20
2022-12-15T10:26:14.391Z,5.20
2022-12-15T10:29:11.042Z,5.30
2022-12-15T10:31:51.226Z,5.40
2022-12-15T10:34:27.770Z,5.30
2022-12-15T10:36:59.746Z,5.30
2022-12-15T10:39:46.041Z,5.20
2022-12-15T10:42:25.340Z,5.30
2022-12-15T10:44:58.921Z,5.40
2022-12-15T10:47:32.370Z,5.40
2022-12-15T10:50:24.705Z,5.40
2022-12-15T10:52:57.330Z,5.40
2022-12-15T10:55:29.162Z,5.40
2022-12-15T10:58:03.018Z,5.50
2022-12-15T11:00:35.121Z,5.70
2022-12-15T11:03:23.097Z,5.70
2022-12-15T11:05:57.070Z,5.70
2022-12-15T11:08:30.089Z,5.80
2022-12-15T11:11:26.080Z,5.70
2022-12-15T11:14:07.267Z,5.80
2022-12-15T11:16:48.887Z,5.90
2022-12-15T11:19:29.745Z,5.90
2022-12-15T11:22:30.420Z,5.80
2022-12-15T11:25:24.597Z,5.80
2022-12-15T11:27:59.631Z,5.80
2022-12-15T11:30:42.447Z,5.80
2022-12-15T11:33:14.861Z,5.80
2022-12-15T11:35:46.661Z,5.90
2022-12-15T11:38:35.467Z,5.90
2022-12-15T11:41:30.587Z,5.90
2022-12-15T11:44:44.007Z,6.00
2022-12-15T11:47:40.796Z,6.20
2022-12-15T11:50:34.172Z,6.20
2022-12-15T11:53:14.791Z,6.20
2022-12-15T11:56:05.557Z,6.20
2022-12-15T11:58:56.420Z,6.20
2022-12-15T12:01:38.336Z,6.20
2022-12-15T12:04:34.552Z,6.10
2022-12-15T12:10:37.519Z,6.10
2022-12-15T12:13:21.246Z,6.10
2022-12-15T12:16:09.238Z,6.20
2022-12-15T12:19:06.099Z,6.20
2022-12-15T12:21:46.426Z,6.20
2022-12-15T12:24:54.910Z,6.30
2022-12-15T12:27:44.653Z,6.30
2022-12-15T12:30:23.385Z,6.10
2022-12-15T12:33:11.875Z,6.20
2022-12-15T12:35:51.699Z,6.20
2022-12-15T12:38:34.255Z,6.20
2022-12-15T12:41:18.676Z,6.30
2022-12-15T12:46:54.005Z,6.30
2022-12-15T12:50:03.731Z,6.20
2022-12-15T12:52:37.877Z,6.30
2022-12-15T12:55:14.433Z,6.20
2022-12-15T12:57:47.441Z,6.20
2022-12-15T13:00:28.166Z,6.20
2022-12-15T13:03:12.556Z,6.20
2022-12-15T13:05:46.741Z,6.20
2022-12-15T13:08:51.592Z,6.30
2022-12-15T13:11:49.118Z,6.30
2022-12-15T13:14:34.865Z,6.30
2022-12-15T13:17:28.240Z,6.30
2022-12-15T13:20:03.208Z,6.30
2022-12-15T13:22:40.009Z,6.40
2022-12-15T13:25:38.685Z,6.30
2022-12-15T13:28:19.126Z,6.30
2022-12-15T13:31:16.598Z,6.30
2022-12-15T13:33:53.858Z,6.40
2022-12-15T13:36:38.224Z,6.60
2022-12-15T13:39:19.409Z,6.60
2022-12-15T13:44:52.882Z,6.40
2022-12-15T13:47:30.156Z,6.30
2022-12-15T13:50:12.385Z,6.20
2022-12-15T13:56:03.659Z,6.10
2022-12-15T13:58:44.560Z,6.00
2022-12-15T14:01:30.170Z,6.00
2022-12-15T14:04:06.157Z,5.90
2022-12-15T14:06:44.089Z,6.00
2022-12-15T14:09:21.307Z,6.00
2022-12-15T14:14:49.833Z,6.20
2022-12-15T14:17:22.378Z,6.20
2022-12-15T14:19:54.261Z,6.20
2022-12-15T14:22:30.001Z,6.30
2022-12-15T14:25:22.493Z,6.20
2022-12-15T14:27:54.441Z,6.20
2022-12-15T14:30:33.132Z,6.20
2022-12-15T14:33:12.318Z,6.20
2022-12-15T14:35:50.132Z,6.10
2022-12-15T14:38:28.094Z,6.00
2022-12-15T14:41:03.609Z,6.10
2022-12-15T14:43:40.111Z,6.10
2022-12-15T14:46:23.697Z,6.10
2022-12-15T14:49:05.644Z,5.90
2022-12-15T14:51:48.548Z,5.80
2022-12-15T14:54:35.747Z,5.70
2022-12-15T14:57:28.247Z,5.70
2022-12-15T15:00:00.087Z,5.70
2022-12-15T15:02:32.048Z,5.80
2022-12-15T15:03:05.498Z,6.50
2022-12-15T15:03:07.047Z,6.10
2022-12-15T15:03:10.065Z,6.30
2022-12-15T15:03:16.258Z,6.10
2022-12-15T15:05:09.841Z,5.80
2022-12-15T15:07:45.651Z,5.80
2022-12-15T15:10:29.713Z,5.80
2022-12-15T15:13:05.984Z,5.90
2022-12-15T15:15:38.532Z,6.10
2022-12-15T15:18:15.526Z,6.10
2022-12-15T15:21:15.058Z,6.20
2022-12-15T15:24:20.170Z,6.20
2022-12-15T15:26:53.067Z,6.10
2022-12-15T15:29:39.429Z,6.00
2022-12-15T15:32:20.614Z,6.00
2022-12-15T15:34:52.558Z,6.10
2022-12-15T15:37:25.301Z,6.10
2022-12-15T15:39:57.143Z,6.00
2022-12-15T15:42:32.465Z,6.00
2022-12-15T15:45:05.320Z,5.90
2022-12-15T15:47:37.787Z,5.90
2022-12-15T15:50:14.581Z,5.90
2022-12-15T15:52:46.616Z,6.00
2022-12-15T15:55:29.488Z,6.00
2022-12-15T15:58:05.414Z,6.00
2022-12-15T16:00:37.430Z,6.00
2022-12-15T16:03:26.839Z,6.10
2022-12-15T16:05:59.028Z,6.10
2022-12-15T16:08:36.912Z,6.10
2022-12-15T16:11:12.208Z,6.10
2022-12-15T16:13:45.024Z,6.20
2022-12-15T16:16:21.591Z,6.20
2022-12-15T16:18:53.546Z,6.30
2022-12-15T16:21:27.863Z,6.40
2022-12-15T16:24:00.614Z,6.40
2022-12-15T16:26:34.084Z,6.50
2022-12-15T16:29:16.993Z,6.70
2022-12-15T16:31:50.253Z,6.90
2022-12-15T16:34:24.706Z,7.00
2022-12-15T16:36:59.790Z,7.20
2022-12-15T16:39:34.129Z,7.20
2022-12-15T16:42:10.719Z,7.20
2022-12-15T16:44:45.657Z,7.20
2022-12-15T16:47:17.555Z,7.20
2022-12-15T16:49:49.700Z,7.10
2022-12-15T16:52:24.427Z,6.90
2022-12-15T16:54:58.424Z,6.70
2022-12-15T16:57:30.359Z,6.50
2022-12-15T17:00:02.531Z,6.40
2022-12-15T17:02:42.050Z,6.20
2022-12-15T17:05:14.160Z,6.20
2022-12-15T17:07:55.841Z,6.20
2022-12-15T17:10:30.227Z,6.20
2022-12-15T17:13:24.207Z,6.10
2022-12-15T17:15:56.954Z,6.00
2022-12-15T17:18:29.696Z,5.90
2022-12-15T17:21:25.214Z,5.70
2022-12-15T17:24:03.661Z,5.70
2022-12-15T17:26:37.064Z,5.70
2022-12-15T17:29:16.394Z,5.70
2022-12-15T17:31:52.674Z,5.70
2022-12-15T17:34:32.347Z,5.70
2022-12-15T17:37:08.195Z,5.70
2022-12-15T17:39:51.708Z,5.80
2022-12-15T17:42:24.219Z,5.70
2022-12-15T17:44:56.713Z,5.80
2022-12-15T17:47:30.508Z,5.70
2022-12-15T17:50:02.457Z,5.80
2022-12-15T17:52:34.622Z,5.90
2022-12-15T17:55:22.462Z,5.80
2022-12-15T17:57:55.658Z,5.80
2022-12-15T18:00:32.756Z,5.80
2022-12-15T18:03:05.355Z,5.80
2022-12-15T18:05:38.514Z,5.80
2022-12-15T18:08:22.704Z,5.80
2022-12-15T18:10:58.564Z,5.60
2022-12-15T18:13:35.436Z,5.60
2022-12-15T18:16:07.968Z,5.60
2022-12-15T18:18:40.048Z,5.70
2022-12-15T18:21:15.431Z,5.80
2022-12-15T18:23:47.871Z,5.70
2022-12-15T18:26:21.023Z,5.60
2022-12-15T18:28:52.905Z,5.60
2022-12-15T18:31:27.077Z,5.70
2022-12-15T18:34:04.457Z,5.60
2022-12-15T18:36:37.088Z,5.60
2022-12-15T18:39:27.091Z,5.70
2022-12-15T18:41:59.137Z,5.60
2022-12-15T18:44:31.965Z,5.60
2022-12-15T18:47:11.762Z,5.70
2022-12-15T18:49:43.854Z,5.90
2022-12-15T18:52:21.841Z,6.00
2022-12-15T18:54:54.319Z,6.00
2022-12-15T18:57:38.095Z,5.90
2022-12-15T19:00:09.967Z,5.90
2022-12-15T19:02:42.721Z,5.80
2022-12-15T19:05:32.375Z,5.80
2022-12-15T19:08:14.973Z,5.80
2022-12-15T19:11:01.340Z,5.90
2022-12-15T19:13:36.106Z,6.00
2022-12-15T19:16:18.719Z,6.00
2022-12-15T19:19:13.796Z,6.10
2022-12-15T19:22:27.714Z,6.10
2022-12-15T19:24:59.626Z,6.10
2022-12-15T19:27:31.952Z,6.20
2022-12-15T19:30:13.741Z,6.30
2022-12-15T19:32:46.074Z,6.30
2022-12-15T19:35:17.939Z,6.20
2022-12-15T19:37:50.064Z,6.10
2022-12-15T19:40:27.707Z,6.10
2022-12-15T19:43:00.951Z,5.90
2022-12-15T19:45:33.409Z,5.80
2022-12-15T19:48:06.277Z,5.50
2022-12-15T19:50:39.709Z,5.40
2022-12-15T19:53:17.575Z,5.30
2022-12-15T19:55:49.965Z,5.30
2022-12-15T19:58:28.785Z,5.30
2022-12-15T20:01:04.820Z,5.30
2022-12-15T20:03:37.447Z,5.30
2022-12-15T20:06:22.369Z,5.40
2022-12-15T20:08:56.206Z,5.40
2022-12-15T20:11:30.987Z,5.40
2022-12-15T20:14:09.122Z,5.40
2022-12-15T20:16:41.199Z,5.40
2022-12-15T20:19:13.319Z,5.40
2022-12-15T20:21:45.249Z,5.40
2022-12-15T20:24:19.499Z,5.30
2022-12-15T20:26:51.508Z,5.30
2022-12-15T20:29:26.509Z,5.20
2022-12-15T20:31:59.378Z,5.20
2022-12-15T20:34:31.499Z,5.20
2022-12-15T20:37:04.340Z,5.20
2022-12-15T20:39:36.929Z,5.40
2022-12-15T20:42:18.308Z,5.40
2022-12-15T20:44:50.240Z,5.40
2022-12-15T20:47:26.971Z,5.40
2022-12-15T20:49:59.516Z,5.50
2022-12-15T20:52:31.593Z,5.50
2022-12-15T20:55:09.985Z,5.50
2022-12-15T20:57:42.026Z,5.40
2022-12-15T21:00:14.923Z,5.20
2022-12-15T21:02:47.534Z,5.10
2022-12-15T21:05:23.748Z,5.10
2022-12-15T21:07:55.749Z,5.20
2022-12-15T21:10:27.839Z,5.20
2022-12-15T21:12:59.737Z,5.10
2022-12-15T21:15:31.658Z,5.10
2022-12-15T21:18:46.617Z,5.20
2022-12-15T21:20:58.866Z,5.30
2022-12-15T21:23:31.856Z,5.40
2022-12-15T21:26:04.084Z,5.40
2022-12-15T21:28:36.107Z,5.40
2022-12-15T21:31:07.987Z,5.40
2022-12-15T21:33:39.974Z,5.40
2022-12-15T21:36:17.134Z,5.40
2022-12-15T21:38:51.972Z,5.40
2022-12-15T21:41:24.161Z,5.30
2022-12-15T21:43:56.106Z,5.40
2022-12-15T21:46:28.912Z,5.40
2022-12-15T21:49:18.208Z,5.50
2022-12-15T21:51:58.560Z,5.50
2022-12-15T21:54:33.155Z,5.60
2022-12-15T21:57:10.366Z,5.50
2022-12-15T21:59:42.980Z,5.40
2022-12-15T22:02:26.308Z,5.40
2022-12-15T22:04:58.441Z,5.40
2022-12-15T22:07:30.375Z,5.40
2022-12-15T22:10:02.371Z,5.40
2022-12-15T22:12:34.284Z,5.40
2022-12-15T22:15:18.612Z,5.40
2022-12-15T22:17:50.820Z,5.40
2022-12-15T22:20:24.604Z,5.50
2022-12-15T22:22:56.566Z,5.60
2022-12-15T22:25:28.497Z,5.60
2022-12-15T22:28:00.377Z,5.70
2022-12-15T22:30:32.378Z,5.80
2022-12-15T22:33:19.150Z,5.70
2022-12-15T22:35:54.887Z,5.70
2022-12-15T22:38:26.907Z,5.80
2022-12-15T22:40:59.845Z,5.90
2022-12-15T22:43:36.089Z,5.90
2022-12-15T22:46:12.461Z,5.90
2022-12-15T22:48:47.598Z,5.90
2022-12-15T22:51:19.633Z,5.90
2022-12-15T22:53:51.652Z,5.90
2022-12-15T22:56:34.396Z,6.00
2022-12-15T22:59:10.827Z,5.90
2022-12-15T23:01:43.026Z,6.00
2022-12-15T23:04:15.060Z,6.10
2022-12-15T23:06:47.074Z,6.10
2022-12-15T23:09:18.965Z,6.10
2022-12-15T23:11:50.903Z,6.10
2022-12-15T23:14:42.827Z,5.90
2022-12-15T23:17:14.796Z,5.90
2022-12-15T23:19:47.172Z,5.90
2022-12-15T23:22:19.174Z,5.90
2022-12-15T23:24:51.106Z,5.80
2022-12-15T23:27:23.774Z,5.70
2022-12-15T23:29:55.768Z,5.70
2022-12-15T23:32:27.729Z,5.70
2022-12-15T23:34:59.606Z,5.70
2022-12-15T23:37:31.516Z,5.70
2022-12-15T23:40:03.681Z,5.80
2022-12-15T23:42:35.789Z,5.90
2022-12-15T23:45:08.258Z,5.90
2022-12-15T23:47:40.732Z,5.80
2022-12-15T23:50:12.736Z,5.90
2022-12-15T23:52:47.284Z,5.90
2022-12-15T23:55:20.942Z,5.90
2022-12-15T23:57:55.973Z,5.90
